sensor_id;sensor_type;location;lat;lon;timestamp;P1;durP1;ratioP1;P2;durP2;ratioP2
40621;SDS011;26324;52.040;11.528;2022-09-09T00:04:40;6.35;;;3.10;;
40621;SDS011;26324;52.040;11.528;2022-09-09T00:13:05;3.78;;;2.47;;
40621;SDS011;26324;52.040;11.528;2022-09-09T00:18:51;5.95;;;3.25;;
40621;SDS011;26324;52.040;11.528;2022-09-09T00:22:29;4.97;;;2.13;;
40621;SDS011;26324;52.040;11.528;2022-09-09T00:24:43;2.92;;;1.50;;
40621;SDS011;26324;52.040;11.528;2022-09-09T00:29:56;5.65;;;1.70;;
40621;SDS011;26324;52.040;11.528;2022-09-09T00:33:00;4.05;;;2.30;;
40621;SDS011;26324;52.040;11.528;2022-09-09T00:35:31;2.80;;;2.00;;
40621;SDS011;26324;52.040;11.528;2022-09-09T00:38:02;5.47;;;1.85;;
40621;SDS011;26324;52.040;11.528;2022-09-09T00:40:44;2.55;;;1.67;;
40621;SDS011;26324;52.040;11.528;2022-09-09T00:43:26;3.97;;;2.08;;
40621;SDS011;26324;52.040;11.528;2022-09-09T00:46:10;3.28;;;1.98;;
40621;SDS011;26324;52.040;11.528;2022-09-09T00:51:08;3.40;;;2.22;;
40621;SDS011;26324;52.040;11.528;2022-09-09T00:56:29;2.15;;;1.50;;
40621;SDS011;26324;52.040;11.528;2022-09-09T01:01:36;5.30;;;1.40;;
40621;SDS011;26324;52.040;11.528;2022-09-09T01:04:04;2.60;;;1.38;;
40621;SDS011;26324;52.040;11.528;2022-09-09T01:06:41;2.42;;;1.80;;
40621;SDS011;26324;52.040;11.528;2022-09-09T01:17:38;4.63;;;1.35;;
40621;SDS011;26324;52.040;11.528;2022-09-09T01:20:03;2.35;;;1.30;;
40621;SDS011;26324;52.040;11.528;2022-09-09T01:28:22;3.13;;;1.52;;
40621;SDS011;26324;52.040;11.528;2022-09-09T01:30:52;2.42;;;1.33;;
40621;SDS011;26324;52.040;11.528;2022-09-09T01:33:19;2.17;;;1.40;;
40621;SDS011;26324;52.040;11.528;2022-09-09T01:35:47;2.75;;;1.40;;
40621;SDS011;26324;52.040;11.528;2022-09-09T01:38:15;1.55;;;1.23;;
40621;SDS011;26324;52.040;11.528;2022-09-09T01:40:42;3.05;;;1.40;;
40621;SDS011;26324;52.040;11.528;2022-09-09T01:43:08;1.55;;;1.10;;
40621;SDS011;26324;52.040;11.528;2022-09-09T01:45:34;1.70;;;1.23;;
40621;SDS011;26324;52.040;11.528;2022-09-09T01:48:00;1.65;;;1.05;;
40621;SDS011;26324;52.040;11.528;2022-09-09T01:50:27;1.63;;;1.25;;
40621;SDS011;26324;52.040;11.528;2022-09-09T01:52:54;5.88;;;1.50;;
40621;SDS011;26324;52.040;11.528;2022-09-09T01:55:34;2.38;;;1.52;;
40621;SDS011;26324;52.040;11.528;2022-09-09T02:00:53;4.75;;;1.60;;
40621;SDS011;26324;52.040;11.528;2022-09-09T02:03:27;2.88;;;1.80;;
40621;SDS011;26324;52.040;11.528;2022-09-09T02:08:50;3.78;;;1.50;;
40621;SDS011;26324;52.040;11.528;2022-09-09T02:11:23;3.45;;;2.03;;
40621;SDS011;26324;52.040;11.528;2022-09-09T02:13:52;4.72;;;1.88;;
40621;SDS011;26324;52.040;11.528;2022-09-09T02:19:29;2.38;;;1.58;;
40621;SDS011;26324;52.040;11.528;2022-09-09T02:21:59;4.72;;;1.65;;
40621;SDS011;26324;52.040;11.528;2022-09-09T02:24:27;4.60;;;1.52;;
40621;SDS011;26324;52.040;11.528;2022-09-09T02:26:55;3.10;;;1.40;;
40621;SDS011;26324;52.040;11.528;2022-09-09T02:29:24;3.75;;;1.45;;
40621;SDS011;26324;52.040;11.528;2022-09-09T02:31:53;2.10;;;0.90;;
40621;SDS011;26324;52.040;11.528;2022-09-09T02:34:23;4.15;;;1.60;;
40621;SDS011;26324;52.040;11.528;2022-09-09T02:36:49;3.78;;;1.83;;
40621;SDS011;26324;52.040;11.528;2022-09-09T02:39:17;6.05;;;1.98;;
40621;SDS011;26324;52.040;11.528;2022-09-09T02:41:43;4.07;;;1.58;;
40621;SDS011;26324;52.040;11.528;2022-09-09T02:44:12;3.10;;;1.33;;
40621;SDS011;26324;52.040;11.528;2022-09-09T02:52:30;5.55;;;1.35;;
40621;SDS011;26324;52.040;11.528;2022-09-09T02:55:12;2.58;;;1.40;;
40621;SDS011;26324;52.040;11.528;2022-09-09T02:57:54;3.45;;;1.65;;
40621;SDS011;26324;52.040;11.528;2022-09-09T03:00:25;6.72;;;1.98;;
40621;SDS011;26324;52.040;11.528;2022-09-09T03:02:52;2.28;;;1.45;;
40621;SDS011;26324;52.040;11.528;2022-09-09T03:05:19;3.10;;;1.30;;
40621;SDS011;26324;52.040;11.528;2022-09-09T03:07:46;4.57;;;1.90;;
40621;SDS011;26324;52.040;11.528;2022-09-09T03:10:12;3.60;;;1.55;;
40621;SDS011;26324;52.040;11.528;2022-09-09T03:12:38;3.03;;;1.50;;
40621;SDS011;26324;52.040;11.528;2022-09-09T03:15:04;2.33;;;1.40;;
40621;SDS011;26324;52.040;11.528;2022-09-09T03:17:31;3.90;;;1.48;;
40621;SDS011;26324;52.040;11.528;2022-09-09T03:19:57;4.30;;;1.42;;
40621;SDS011;26324;52.040;11.528;2022-09-09T03:22:23;5.13;;;1.77;;
40621;SDS011;26324;52.040;11.528;2022-09-09T03:24:50;4.28;;;1.60;;
40621;SDS011;26324;52.040;11.528;2022-09-09T03:27:17;2.88;;;1.48;;
40621;SDS011;26324;52.040;11.528;2022-09-09T03:29:44;5.63;;;1.80;;
40621;SDS011;26324;52.040;11.528;2022-09-09T03:32:10;3.63;;;1.45;;
40621;SDS011;26324;52.040;11.528;2022-09-09T03:34:37;4.20;;;1.75;;
40621;SDS011;26324;52.040;11.528;2022-09-09T03:37:06;5.15;;;1.60;;
40621;SDS011;26324;52.040;11.528;2022-09-09T03:39:31;5.10;;;1.38;;
40621;SDS011;26324;52.040;11.528;2022-09-09T03:41:57;3.30;;;1.75;;
40621;SDS011;26324;52.040;11.528;2022-09-09T03:44:22;2.47;;;1.48;;
40621;SDS011;26324;52.040;11.528;2022-09-09T03:46:48;3.45;;;1.70;;
40621;SDS011;26324;52.040;11.528;2022-09-09T03:49:13;3.35;;;1.33;;
40621;SDS011;26324;52.040;11.528;2022-09-09T03:51:40;3.22;;;1.42;;
40621;SDS011;26324;52.040;11.528;2022-09-09T03:54:06;4.15;;;1.65;;
40621;SDS011;26324;52.040;11.528;2022-09-09T03:56:34;7.22;;;1.48;;
40621;SDS011;26324;52.040;11.528;2022-09-09T03:59:00;4.82;;;1.73;;
40621;SDS011;26324;52.040;11.528;2022-09-09T04:01:26;6.78;;;1.65;;
40621;SDS011;26324;52.040;11.528;2022-09-09T04:03:52;2.80;;;1.17;;
40621;SDS011;26324;52.040;11.528;2022-09-09T04:06:17;2.38;;;1.90;;
40621;SDS011;26324;52.040;11.528;2022-09-09T04:08:44;2.65;;;1.77;;
40621;SDS011;26324;52.040;11.528;2022-09-09T04:11:13;2.85;;;1.50;;
40621;SDS011;26324;52.040;11.528;2022-09-09T04:13:38;4.07;;;1.92;;
40621;SDS011;26324;52.040;11.528;2022-09-09T04:16:05;2.65;;;1.75;;
40621;SDS011;26324;52.040;11.528;2022-09-09T04:18:31;4.80;;;1.77;;
40621;SDS011;26324;52.040;11.528;2022-09-09T04:20:57;3.10;;;1.42;;
40621;SDS011;26324;52.040;11.528;2022-09-09T04:23:23;2.90;;;1.63;;
40621;SDS011;26324;52.040;11.528;2022-09-09T04:25:53;4.40;;;2.08;;
40621;SDS011;26324;52.040;11.528;2022-09-09T04:28:20;3.55;;;2.50;;
40621;SDS011;26324;52.040;11.528;2022-09-09T04:30:49;2.78;;;1.45;;
40621;SDS011;26324;52.040;11.528;2022-09-09T04:33:14;11.05;;;1.88;;
40621;SDS011;26324;52.040;11.528;2022-09-09T04:35:46;5.70;;;1.80;;
40621;SDS011;26324;52.040;11.528;2022-09-09T04:38:13;3.03;;;1.65;;
40621;SDS011;26324;52.040;11.528;2022-09-09T04:40:41;8.68;;;2.47;;
40621;SDS011;26324;52.040;11.528;2022-09-09T04:43:13;3.88;;;2.10;;
40621;SDS011;26324;52.040;11.528;2022-09-09T04:45:39;5.20;;;1.83;;
40621;SDS011;26324;52.040;11.528;2022-09-09T04:48:05;3.08;;;1.90;;
40621;SDS011;26324;52.040;11.528;2022-09-09T04:50:32;3.53;;;1.98;;
40621;SDS011;26324;52.040;11.528;2022-09-09T04:53:05;4.60;;;2.42;;
40621;SDS011;26324;52.040;11.528;2022-09-09T04:55:31;3.55;;;1.30;;
40621;SDS011;26324;52.040;11.528;2022-09-09T04:58:02;6.43;;;1.60;;
40621;SDS011;26324;52.040;11.528;2022-09-09T05:00:30;4.60;;;1.83;;
40621;SDS011;26324;52.040;11.528;2022-09-09T05:02:55;3.10;;;1.58;;
40621;SDS011;26324;52.040;11.528;2022-09-09T05:05:21;5.72;;;2.03;;
40621;SDS011;26324;52.040;11.528;2022-09-09T05:07:47;4.60;;;1.60;;
40621;SDS011;26324;52.040;11.528;2022-09-09T05:10:13;7.32;;;1.77;;
40621;SDS011;26324;52.040;11.528;2022-09-09T05:12:39;4.03;;;1.92;;
40621;SDS011;26324;52.040;11.528;2022-09-09T05:15:05;2.60;;;1.63;;
40621;SDS011;26324;52.040;11.528;2022-09-09T05:17:31;4.50;;;2.88;;
40621;SDS011;26324;52.040;11.528;2022-09-09T05:19:56;5.47;;;2.00;;
40621;SDS011;26324;52.040;11.528;2022-09-09T05:22:22;6.57;;;1.80;;
40621;SDS011;26324;52.040;11.528;2022-09-09T05:24:48;4.32;;;1.58;;
40621;SDS011;26324;52.040;11.528;2022-09-09T05:27:16;6.13;;;2.40;;
40621;SDS011;26324;52.040;11.528;2022-09-09T05:29:45;4.20;;;1.63;;
40621;SDS011;26324;52.040;11.528;2022-09-09T05:32:11;5.75;;;1.92;;
40621;SDS011;26324;52.040;11.528;2022-09-09T05:34:38;4.70;;;1.70;;
40621;SDS011;26324;52.040;11.528;2022-09-09T05:37:04;4.22;;;1.80;;
40621;SDS011;26324;52.040;11.528;2022-09-09T05:39:29;2.35;;;1.38;;
40621;SDS011;26324;52.040;11.528;2022-09-09T05:41:55;2.28;;;1.63;;
40621;SDS011;26324;52.040;11.528;2022-09-09T05:44:22;6.03;;;1.77;;
40621;SDS011;26324;52.040;11.528;2022-09-09T05:46:49;4.47;;;2.45;;
40621;SDS011;26324;52.040;11.528;2022-09-09T05:49:16;1.98;;;1.33;;
40621;SDS011;26324;52.040;11.528;2022-09-09T05:51:43;5.82;;;1.30;;
40621;SDS011;26324;52.040;11.528;2022-09-09T05:54:10;5.70;;;2.60;;
40621;SDS011;26324;52.040;11.528;2022-09-09T05:56:37;4.47;;;1.88;;
40621;SDS011;26324;52.040;11.528;2022-09-09T05:59:05;3.72;;;1.48;;
40621;SDS011;26324;52.040;11.528;2022-09-09T06:01:32;5.20;;;1.80;;
40621;SDS011;26324;52.040;11.528;2022-09-09T06:03:59;3.70;;;1.42;;
40621;SDS011;26324;52.040;11.528;2022-09-09T06:06:27;5.55;;;1.50;;
40621;SDS011;26324;52.040;11.528;2022-09-09T06:08:56;3.20;;;1.10;;
40621;SDS011;26324;52.040;11.528;2022-09-09T06:11:24;5.20;;;2.22;;
40621;SDS011;26324;52.040;11.528;2022-09-09T06:13:51;5.18;;;1.70;;
40621;SDS011;26324;52.040;11.528;2022-09-09T06:16:19;3.33;;;1.17;;
40621;SDS011;26324;52.040;11.528;2022-09-09T06:18:48;2.08;;;1.10;;
40621;SDS011;26324;52.040;11.528;2022-09-09T06:23:49;2.92;;;1.30;;
40621;SDS011;26324;52.040;11.528;2022-09-09T06:29:11;6.78;;;1.45;;
40621;SDS011;26324;52.040;11.528;2022-09-09T06:31:37;3.67;;;1.17;;
40621;SDS011;26324;52.040;11.528;2022-09-09T06:34:06;5.00;;;1.40;;
40621;SDS011;26324;52.040;11.528;2022-09-09T06:36:34;2.85;;;1.25;;
40621;SDS011;26324;52.040;11.528;2022-09-09T06:39:02;4.10;;;1.48;;
40621;SDS011;26324;52.040;11.528;2022-09-09T06:41:29;3.05;;;1.42;;
40621;SDS011;26324;52.040;11.528;2022-09-09T06:43:56;3.70;;;1.10;;
40621;SDS011;26324;52.040;11.528;2022-09-09T06:46:22;3.47;;;1.65;;
40621;SDS011;26324;52.040;11.528;2022-09-09T06:48:53;6.93;;;2.08;;
40621;SDS011;26324;52.040;11.528;2022-09-09T06:51:25;4.50;;;1.30;;
40621;SDS011;26324;52.040;11.528;2022-09-09T06:53:54;4.13;;;1.30;;
40621;SDS011;26324;52.040;11.528;2022-09-09T06:56:28;1.80;;;1.30;;
40621;SDS011;26324;52.040;11.528;2022-09-09T06:58:56;3.03;;;1.00;;
40621;SDS011;26324;52.040;11.528;2022-09-09T07:01:24;1.88;;;1.13;;
40621;SDS011;26324;52.040;11.528;2022-09-09T07:03:53;5.43;;;2.47;;
40621;SDS011;26324;52.040;11.528;2022-09-09T07:06:21;2.00;;;1.10;;
40621;SDS011;26324;52.040;11.528;2022-09-09T07:08:51;4.72;;;0.90;;
40621;SDS011;26324;52.040;11.528;2022-09-09T07:11:22;5.68;;;1.30;;
40621;SDS011;26324;52.040;11.528;2022-09-09T07:13:50;4.32;;;1.67;;
40621;SDS011;26324;52.040;11.528;2022-09-09T07:16:16;4.00;;;1.30;;
40621;SDS011;26324;52.040;11.528;2022-09-09T07:18:43;2.83;;;0.95;;
40621;SDS011;26324;52.040;11.528;2022-09-09T07:21:10;3.00;;;1.10;;
40621;SDS011;26324;52.040;11.528;2022-09-09T07:23:39;3.70;;;1.10;;
40621;SDS011;26324;52.040;11.528;2022-09-09T07:26:13;2.58;;;1.50;;
40621;SDS011;26324;52.040;11.528;2022-09-09T07:28:40;2.25;;;1.00;;
40621;SDS011;26324;52.040;11.528;2022-09-09T07:31:06;2.47;;;1.20;;
40621;SDS011;26324;52.040;11.528;2022-09-09T07:33:38;3.13;;;1.08;;
40621;SDS011;26324;52.040;11.528;2022-09-09T07:38:41;3.40;;;1.45;;
40621;SDS011;26324;52.040;11.528;2022-09-09T07:41:11;3.35;;;1.70;;
40621;SDS011;26324;52.040;11.528;2022-09-09T07:43:48;5.78;;;1.88;;
40621;SDS011;26324;52.040;11.528;2022-09-09T07:46:15;6.38;;;1.70;;
40621;SDS011;26324;52.040;11.528;2022-09-09T07:48:45;4.40;;;1.20;;
40621;SDS011;26324;52.040;11.528;2022-09-09T07:51:16;4.45;;;1.45;;
40621;SDS011;26324;52.040;11.528;2022-09-09T07:53:44;5.93;;;1.35;;
40621;SDS011;26324;52.040;11.528;2022-09-09T07:56:12;4.93;;;1.17;;
40621;SDS011;26324;52.040;11.528;2022-09-09T07:58:39;4.57;;;1.80;;
40621;SDS011;26324;52.040;11.528;2022-09-09T08:01:09;3.15;;;1.85;;
40621;SDS011;26324;52.040;11.528;2022-09-09T08:03:36;5.97;;;1.63;;
40621;SDS011;26324;52.040;11.528;2022-09-09T08:06:03;4.60;;;1.88;;
40621;SDS011;26324;52.040;11.528;2022-09-09T08:08:31;3.08;;;1.17;;
40621;SDS011;26324;52.040;11.528;2022-09-09T08:11:01;4.15;;;1.63;;
40621;SDS011;26324;52.040;11.528;2022-09-09T08:13:32;1.27;;;0.95;;
40621;SDS011;26324;52.040;11.528;2022-09-09T08:16:09;2.88;;;1.17;;
40621;SDS011;26324;52.040;11.528;2022-09-09T08:18:42;5.30;;;1.33;;
40621;SDS011;26324;52.040;11.528;2022-09-09T08:21:10;4.32;;;1.63;;
40621;SDS011;26324;52.040;11.528;2022-09-09T08:23:41;4.55;;;1.27;;
40621;SDS011;26324;52.040;11.528;2022-09-09T08:26:12;4.80;;;1.35;;
40621;SDS011;26324;52.040;11.528;2022-09-09T08:28:40;3.45;;;1.00;;
40621;SDS011;26324;52.040;11.528;2022-09-09T08:31:13;3.83;;;0.80;;
40621;SDS011;26324;52.040;11.528;2022-09-09T08:33:41;2.88;;;0.95;;
40621;SDS011;26324;52.040;11.528;2022-09-09T08:36:10;5.18;;;1.60;;
40621;SDS011;26324;52.040;11.528;2022-09-09T08:38:38;2.30;;;0.90;;
40621;SDS011;26324;52.040;11.528;2022-09-09T08:41:07;5.30;;;1.08;;
40621;SDS011;26324;52.040;11.528;2022-09-09T08:52:31;6.37;;;1.00;;
40621;SDS011;26324;52.040;11.528;2022-09-09T08:55:12;2.60;;;1.10;;
40621;SDS011;26324;52.040;11.528;2022-09-09T08:57:51;4.03;;;1.10;;
40621;SDS011;26324;52.040;11.528;2022-09-09T09:00:19;2.47;;;0.80;;
40621;SDS011;26324;52.040;11.528;2022-09-09T09:02:52;2.90;;;0.88;;
40621;SDS011;26324;52.040;11.528;2022-09-09T09:05:19;4.53;;;1.10;;
40621;SDS011;26324;52.040;11.528;2022-09-09T09:08:02;5.53;;;0.85;;
40621;SDS011;26324;52.040;11.528;2022-09-09T09:10:47;2.55;;;1.00;;
40621;SDS011;26324;52.040;11.528;2022-09-09T09:15:58;6.10;;;1.20;;
40621;SDS011;26324;52.040;11.528;2022-09-09T09:18:32;4.57;;;1.20;;
40621;SDS011;26324;52.040;11.528;2022-09-09T09:24:12;4.75;;;1.60;;
40621;SDS011;26324;52.040;11.528;2022-09-09T09:26:46;2.75;;;1.00;;
40621;SDS011;26324;52.040;11.528;2022-09-09T09:29:16;2.20;;;0.90;;
40621;SDS011;26324;52.040;11.528;2022-09-09T09:31:48;2.38;;;1.15;;
40621;SDS011;26324;52.040;11.528;2022-09-09T09:34:16;3.42;;;0.68;;
40621;SDS011;26324;52.040;11.528;2022-09-09T09:36:43;3.95;;;0.93;;
40621;SDS011;26324;52.040;11.528;2022-09-09T09:39:34;8.93;;;1.30;;
40621;SDS011;26324;52.040;11.528;2022-09-09T09:42:10;3.92;;;0.93;;
40621;SDS011;26324;52.040;11.528;2022-09-09T09:44:39;5.47;;;0.80;;
40621;SDS011;26324;52.040;11.528;2022-09-09T09:47:14;4.10;;;0.80;;
40621;SDS011;26324;52.040;11.528;2022-09-09T09:49:51;4.97;;;1.38;;
40621;SDS011;26324;52.040;11.528;2022-09-09T09:52:22;3.05;;;1.23;;
40621;SDS011;26324;52.040;11.528;2022-09-09T09:54:49;4.68;;;0.73;;
40621;SDS011;26324;52.040;11.528;2022-09-09T09:57:17;4.05;;;0.90;;
40621;SDS011;26324;52.040;11.528;2022-09-09T09:59:48;4.23;;;0.77;;
40621;SDS011;26324;52.040;11.528;2022-09-09T10:02:25;2.53;;;0.70;;
40621;SDS011;26324;52.040;11.528;2022-09-09T10:05:05;2.80;;;0.70;;
40621;SDS011;26324;52.040;11.528;2022-09-09T10:07:37;3.35;;;0.88;;
40621;SDS011;26324;52.040;11.528;2022-09-09T10:10:04;6.53;;;0.98;;
40621;SDS011;26324;52.040;11.528;2022-09-09T10:18:05;3.58;;;0.80;;
40621;SDS011;26324;52.040;11.528;2022-09-09T10:26:34;5.90;;;1.38;;
40621;SDS011;26324;52.040;11.528;2022-09-09T10:40:24;1.35;;;0.95;;
40621;SDS011;26324;52.040;11.528;2022-09-09T10:48:31;3.58;;;0.80;;
40621;SDS011;26324;52.040;11.528;2022-09-09T10:56:54;3.72;;;1.02;;
40621;SDS011;26324;52.040;11.528;2022-09-09T10:59:29;3.42;;;1.13;;
40621;SDS011;26324;52.040;11.528;2022-09-09T11:02:07;6.18;;;1.33;;
40621;SDS011;26324;52.040;11.528;2022-09-09T11:04:42;3.30;;;0.85;;
40621;SDS011;26324;52.040;11.528;2022-09-09T11:07:23;2.95;;;0.70;;
40621;SDS011;26324;52.040;11.528;2022-09-09T11:09:56;2.30;;;0.85;;
40621;SDS011;26324;52.040;11.528;2022-09-09T11:12:26;3.50;;;0.90;;
40621;SDS011;26324;52.040;11.528;2022-09-09T11:14:56;4.60;;;0.93;;
40621;SDS011;26324;52.040;11.528;2022-09-09T11:17:27;4.43;;;0.85;;
40621;SDS011;26324;52.040;11.528;2022-09-09T11:20:11;3.85;;;0.95;;
40621;SDS011;26324;52.040;11.528;2022-09-09T11:22:37;3.53;;;0.60;;
40621;SDS011;26324;52.040;11.528;2022-09-09T11:27:50;3.20;;;0.80;;
40621;SDS011;26324;52.040;11.528;2022-09-09T11:36:24;0.90;;;0.50;;
40621;SDS011;26324;52.040;11.528;2022-09-09T11:42:21;5.32;;;0.90;;
40621;SDS011;26324;52.040;11.528;2022-09-09T11:44:49;3.55;;;1.10;;
40621;SDS011;26324;52.040;11.528;2022-09-09T11:49:51;2.67;;;0.88;;
40621;SDS011;26324;52.040;11.528;2022-09-09T11:52:22;2.85;;;0.80;;
40621;SDS011;26324;52.040;11.528;2022-09-09T11:54:51;3.13;;;0.63;;
40621;SDS011;26324;52.040;11.528;2022-09-09T11:59:58;3.33;;;0.80;;
40621;SDS011;26324;52.040;11.528;2022-09-09T12:02:25;2.05;;;0.65;;
40621;SDS011;26324;52.040;11.528;2022-09-09T12:07:30;4.13;;;0.90;;
40621;SDS011;26324;52.040;11.528;2022-09-09T12:12:43;4.30;;;0.90;;
40621;SDS011;26324;52.040;11.528;2022-09-09T12:17:44;2.78;;;0.80;;
40621;SDS011;26324;52.040;11.528;2022-09-09T12:23:22;2.35;;;0.43;;
40621;SDS011;26324;52.040;11.528;2022-09-09T12:31:46;4.38;;;1.13;;
40621;SDS011;26324;52.040;11.528;2022-09-09T12:36:55;4.25;;;0.70;;
40621;SDS011;26324;52.040;11.528;2022-09-09T12:39:35;5.60;;;1.58;;
40621;SDS011;26324;52.040;11.528;2022-09-09T12:42:15;5.65;;;1.05;;
40621;SDS011;26324;52.040;11.528;2022-09-09T12:44:55;3.67;;;0.80;;
40621;SDS011;26324;52.040;11.528;2022-09-09T12:47:39;4.60;;;0.95;;
40621;SDS011;26324;52.040;11.528;2022-09-09T12:53:10;4.22;;;0.90;;
40621;SDS011;26324;52.040;11.528;2022-09-09T12:55:49;3.97;;;1.00;;
40621;SDS011;26324;52.040;11.528;2022-09-09T12:58:17;2.58;;;0.75;;
40621;SDS011;26324;52.040;11.528;2022-09-09T13:00:51;2.72;;;0.77;;
40621;SDS011;26324;52.040;11.528;2022-09-09T13:03:18;1.63;;;0.80;;
40621;SDS011;26324;52.040;11.528;2022-09-09T13:05:49;3.58;;;0.52;;
40621;SDS011;26324;52.040;11.528;2022-09-09T13:08:16;2.05;;;0.60;;
40621;SDS011;26324;52.040;11.528;2022-09-09T13:10:49;2.25;;;0.80;;
40621;SDS011;26324;52.040;11.528;2022-09-09T13:13:23;4.47;;;1.30;;
40621;SDS011;26324;52.040;11.528;2022-09-09T13:15:58;3.08;;;0.68;;
40621;SDS011;26324;52.040;11.528;2022-09-09T13:18:29;1.42;;;0.50;;
40621;SDS011;26324;52.040;11.528;2022-09-09T13:20:58;3.00;;;0.68;;
40621;SDS011;26324;52.040;11.528;2022-09-09T13:23:26;5.63;;;1.30;;
40621;SDS011;26324;52.040;11.528;2022-09-09T13:25:58;2.38;;;0.63;;
40621;SDS011;26324;52.040;11.528;2022-09-09T13:28:26;3.00;;;0.77;;
40621;SDS011;26324;52.040;11.528;2022-09-09T13:31:00;6.70;;;1.45;;
40621;SDS011;26324;52.040;11.528;2022-09-09T13:33:34;2.88;;;0.90;;
40621;SDS011;26324;52.040;11.528;2022-09-09T13:36:09;2.95;;;1.00;;
40621;SDS011;26324;52.040;11.528;2022-09-09T13:38:40;3.88;;;0.70;;
40621;SDS011;26324;52.040;11.528;2022-09-09T13:41:20;4.15;;;0.70;;
40621;SDS011;26324;52.040;11.528;2022-09-09T13:43:48;3.65;;;0.70;;
40621;SDS011;26324;52.040;11.528;2022-09-09T13:49:01;4.18;;;0.73;;
40621;SDS011;26324;52.040;11.528;2022-09-09T13:51:51;3.33;;;0.50;;
40621;SDS011;26324;52.040;11.528;2022-09-09T13:54:28;5.03;;;0.90;;
40621;SDS011;26324;52.040;11.528;2022-09-09T13:56:55;2.33;;;0.60;;
40621;SDS011;26324;52.040;11.528;2022-09-09T13:59:21;2.47;;;0.95;;
40621;SDS011;26324;52.040;11.528;2022-09-09T14:01:46;6.78;;;1.00;;
40621;SDS011;26324;52.040;11.528;2022-09-09T14:04:14;2.75;;;0.77;;
40621;SDS011;26324;52.040;11.528;2022-09-09T14:06:40;2.42;;;0.60;;
40621;SDS011;26324;52.040;11.528;2022-09-09T14:09:07;4.00;;;0.70;;
40621;SDS011;26324;52.040;11.528;2022-09-09T14:11:35;1.88;;;0.50;;
40621;SDS011;26324;52.040;11.528;2022-09-09T14:14:01;5.53;;;1.08;;
40621;SDS011;26324;52.040;11.528;2022-09-09T14:16:26;2.85;;;0.60;;
40621;SDS011;26324;52.040;11.528;2022-09-09T14:18:52;4.38;;;0.60;;
40621;SDS011;26324;52.040;11.528;2022-09-09T14:21:18;2.65;;;0.60;;
40621;SDS011;26324;52.040;11.528;2022-09-09T14:23:44;1.60;;;0.52;;
40621;SDS011;26324;52.040;11.528;2022-09-09T14:26:09;5.25;;;0.73;;
40621;SDS011;26324;52.040;11.528;2022-09-09T14:28:35;2.33;;;0.40;;
40621;SDS011;26324;52.040;11.528;2022-09-09T14:31:02;1.23;;;0.40;;
40621;SDS011;26324;52.040;11.528;2022-09-09T14:33:29;4.30;;;0.80;;
40621;SDS011;26324;52.040;11.528;2022-09-09T14:35:56;3.33;;;0.93;;
40621;SDS011;26324;52.040;11.528;2022-09-09T14:38:22;3.13;;;1.02;;
40621;SDS011;26324;52.040;11.528;2022-09-09T14:40:48;5.20;;;0.50;;
40621;SDS011;26324;52.040;11.528;2022-09-09T14:43:13;1.58;;;0.50;;
40621;SDS011;26324;52.040;11.528;2022-09-09T14:45:39;4.60;;;0.65;;
40621;SDS011;26324;52.040;11.528;2022-09-09T14:48:05;2.25;;;0.90;;
40621;SDS011;26324;52.040;11.528;2022-09-09T14:50:30;5.93;;;0.73;;
40621;SDS011;26324;52.040;11.528;2022-09-09T14:52:56;3.88;;;0.80;;
40621;SDS011;26324;52.040;11.528;2022-09-09T14:55:22;4.00;;;0.80;;
40621;SDS011;26324;52.040;11.528;2022-09-09T14:57:47;4.25;;;1.10;;
40621;SDS011;26324;52.040;11.528;2022-09-09T15:00:13;2.28;;;0.60;;
40621;SDS011;26324;52.040;11.528;2022-09-09T15:02:39;3.47;;;0.77;;
40621;SDS011;26324;52.040;11.528;2022-09-09T15:05:05;4.35;;;0.70;;
40621;SDS011;26324;52.040;11.528;2022-09-09T15:07:30;5.00;;;0.90;;
40621;SDS011;26324;52.040;11.528;2022-09-09T15:09:56;1.63;;;0.50;;
40621;SDS011;26324;52.040;11.528;2022-09-09T15:12:22;2.00;;;0.40;;
40621;SDS011;26324;52.040;11.528;2022-09-09T15:14:49;3.65;;;0.52;;
40621;SDS011;26324;52.040;11.528;2022-09-09T15:17:15;2.03;;;0.40;;
40621;SDS011;26324;52.040;11.528;2022-09-09T15:19:42;1.85;;;0.40;;
40621;SDS011;26324;52.040;11.528;2022-09-09T15:22:08;2.28;;;0.70;;
40621;SDS011;26324;52.040;11.528;2022-09-09T15:24:34;1.83;;;0.40;;
40621;SDS011;26324;52.040;11.528;2022-09-09T15:27:00;3.30;;;0.50;;
40621;SDS011;26324;52.040;11.528;2022-09-09T15:29:27;1.88;;;0.60;;
40621;SDS011;26324;52.040;11.528;2022-09-09T15:31:55;3.45;;;0.63;;
40621;SDS011;26324;52.040;11.528;2022-09-09T15:34:21;2.17;;;0.77;;
40621;SDS011;26324;52.040;11.528;2022-09-09T15:36:47;2.80;;;0.40;;
40621;SDS011;26324;52.040;11.528;2022-09-09T15:39:14;3.22;;;0.55;;
40621;SDS011;26324;52.040;11.528;2022-09-09T15:41:41;2.35;;;0.50;;
40621;SDS011;26324;52.040;11.528;2022-09-09T15:44:08;2.15;;;0.50;;
40621;SDS011;26324;52.040;11.528;2022-09-09T15:46:39;1.60;;;0.40;;
40621;SDS011;26324;52.040;11.528;2022-09-09T15:49:18;1.55;;;0.40;;
40621;SDS011;26324;52.040;11.528;2022-09-09T15:51:52;2.05;;;0.50;;
40621;SDS011;26324;52.040;11.528;2022-09-09T15:54:21;3.05;;;0.40;;
40621;SDS011;26324;52.040;11.528;2022-09-09T15:56:53;2.70;;;0.50;;
40621;SDS011;26324;52.040;11.528;2022-09-09T15:59:21;2.20;;;0.32;;
40621;SDS011;26324;52.040;11.528;2022-09-09T16:01:48;4.38;;;0.63;;
40621;SDS011;26324;52.040;11.528;2022-09-09T16:04:20;1.52;;;0.80;;
40621;SDS011;26324;52.040;11.528;2022-09-09T16:06:50;2.25;;;0.47;;
40621;SDS011;26324;52.040;11.528;2022-09-09T16:09:25;1.63;;;0.50;;
40621;SDS011;26324;52.040;11.528;2022-09-09T16:11:51;1.08;;;0.40;;
40621;SDS011;26324;52.040;11.528;2022-09-09T16:14:18;1.90;;;0.47;;
40621;SDS011;26324;52.040;11.528;2022-09-09T16:16:44;3.65;;;0.60;;
40621;SDS011;26324;52.040;11.528;2022-09-09T16:19:11;2.38;;;0.50;;
40621;SDS011;26324;52.040;11.528;2022-09-09T16:21:42;2.35;;;0.60;;
40621;SDS011;26324;52.040;11.528;2022-09-09T16:24:10;3.65;;;0.65;;
40621;SDS011;26324;52.040;11.528;2022-09-09T16:26:41;3.13;;;0.65;;
40621;SDS011;26324;52.040;11.528;2022-09-09T16:29:10;3.78;;;0.70;;
40621;SDS011;26324;52.040;11.528;2022-09-09T16:31:36;1.98;;;0.65;;
40621;SDS011;26324;52.040;11.528;2022-09-09T16:34:02;1.90;;;0.32;;
40621;SDS011;26324;52.040;11.528;2022-09-09T16:36:29;1.92;;;0.82;;
40621;SDS011;26324;52.040;11.528;2022-09-09T16:38:57;0.82;;;0.45;;
40621;SDS011;26324;52.040;11.528;2022-09-09T16:41:25;2.38;;;0.52;;
40621;SDS011;26324;52.040;11.528;2022-09-09T16:43:53;2.20;;;0.50;;
40621;SDS011;26324;52.040;11.528;2022-09-09T16:46:27;1.27;;;0.65;;
40621;SDS011;26324;52.040;11.528;2022-09-09T16:48:55;2.03;;;0.40;;
40621;SDS011;26324;52.040;11.528;2022-09-09T16:51:24;1.77;;;0.40;;
40621;SDS011;26324;52.040;11.528;2022-09-09T16:53:54;1.35;;;0.40;;
40621;SDS011;26324;52.040;11.528;2022-09-09T16:56:23;1.92;;;0.63;;
40621;SDS011;26324;52.040;11.528;2022-09-09T16:58:51;2.78;;;0.50;;
40621;SDS011;26324;52.040;11.528;2022-09-09T17:01:20;1.92;;;0.50;;
40621;SDS011;26324;52.040;11.528;2022-09-09T17:03:46;1.52;;;0.55;;
40621;SDS011;26324;52.040;11.528;2022-09-09T17:06:12;2.60;;;0.40;;
40621;SDS011;26324;52.040;11.528;2022-09-09T17:08:39;3.03;;;0.60;;
40621;SDS011;26324;52.040;11.528;2022-09-09T17:11:13;2.45;;;0.50;;
40621;SDS011;26324;52.040;11.528;2022-09-09T17:13:40;2.80;;;0.70;;
40621;SDS011;26324;52.040;11.528;2022-09-09T17:16:07;1.30;;;0.45;;
40621;SDS011;26324;52.040;11.528;2022-09-09T17:18:33;2.95;;;0.75;;